sensor_id;sensor_type;location;lat;lon;timestamp;P1;durP1;ratioP1;P2;durP2;ratioP2
75386;SDS011;63966;47.914;22.266;2023-09-19T00:00:29;8.85;;;5.38;;
75386;SDS011;63966;47.914;22.266;2023-09-19T00:03:36;9.80;;;5.67;;
75386;SDS011;63966;47.914;22.266;2023-09-19T00:06:41;10.50;;;5.10;;
75386;SDS011;63966;47.914;22.266;2023-09-19T00:09:46;10.93;;;5.50;;
75386;SDS011;63966;47.914;22.266;2023-09-19T00:12:50;11.35;;;5.40;;
75386;SDS011;63966;47.914;22.266;2023-09-19T00:15:57;10.60;;;5.47;;
75386;SDS011;63966;47.914;22.266;2023-09-19T00:19:01;10.47;;;6.07;;
75386;SDS011;63966;47.914;22.266;2023-09-19T00:22:05;9.13;;;5.23;;
75386;SDS011;63966;47.914;22.266;2023-09-19T00:25:10;10.93;;;5.95;;
75386;SDS011;63966;47.914;22.266;2023-09-19T00:28:14;9.48;;;5.90;;
75386;SDS011;63966;47.914;22.266;2023-09-19T00:31:17;10.77;;;5.80;;
75386;SDS011;63966;47.914;22.266;2023-09-19T00:34:21;13.17;;;6.20;;
75386;SDS011;63966;47.914;22.266;2023-09-19T00:37:25;10.77;;;5.83;;
75386;SDS011;63966;47.914;22.266;2023-09-19T00:40:28;12.02;;;6.43;;
75386;SDS011;63966;47.914;22.266;2023-09-19T00:43:35;10.05;;;6.30;;
75386;SDS011;63966;47.914;22.266;2023-09-19T00:46:39;12.80;;;6.57;;
75386;SDS011;63966;47.914;22.266;2023-09-19T00:49:43;12.27;;;6.57;;
75386;SDS011;63966;47.914;22.266;2023-09-19T00:52:55;13.90;;;6.53;;
75386;SDS011;63966;47.914;22.266;2023-09-19T00:55:58;12.93;;;7.40;;
75386;SDS011;63966;47.914;22.266;2023-09-19T00:59:02;11.65;;;6.85;;
75386;SDS011;63966;47.914;22.266;2023-09-19T01:02:06;14.93;;;7.57;;
75386;SDS011;63966;47.914;22.266;2023-09-19T01:05:10;11.90;;;7.30;;
75386;SDS011;63966;47.914;22.266;2023-09-19T01:08:17;12.97;;;7.50;;
75386;SDS011;63966;47.914;22.266;2023-09-19T01:11:34;14.27;;;8.43;;
75386;SDS011;63966;47.914;22.266;2023-09-19T01:14:50;13.07;;;6.80;;
75386;SDS011;63966;47.914;22.266;2023-09-19T01:18:07;14.75;;;7.13;;
75386;SDS011;63966;47.914;22.266;2023-09-19T01:28:14;11.93;;;7.13;;
75386;SDS011;63966;47.914;22.266;2023-09-19T01:31:28;11.88;;;6.82;;
75386;SDS011;63966;47.914;22.266;2023-09-19T01:34:53;12.48;;;7.22;;
75386;SDS011;63966;47.914;22.266;2023-09-19T01:38:00;13.70;;;7.17;;
75386;SDS011;63966;47.914;22.266;2023-09-19T01:41:05;13.30;;;7.77;;
75386;SDS011;63966;47.914;22.266;2023-09-19T01:44:17;15.52;;;7.20;;
75386;SDS011;63966;47.914;22.266;2023-09-19T01:47:35;11.52;;;7.03;;
75386;SDS011;63966;47.914;22.266;2023-09-19T01:54:02;14.67;;;7.57;;
75386;SDS011;63966;47.914;22.266;2023-09-19T01:57:27;11.00;;;6.80;;
75386;SDS011;63966;47.914;22.266;2023-09-19T02:01:07;14.00;;;8.07;;
75386;SDS011;63966;47.914;22.266;2023-09-19T02:04:13;15.07;;;7.50;;
75386;SDS011;63966;47.914;22.266;2023-09-19T02:07:17;11.82;;;7.32;;
75386;SDS011;63966;47.914;22.266;2023-09-19T02:10:20;11.60;;;7.37;;
75386;SDS011;63966;47.914;22.266;2023-09-19T02:13:25;12.87;;;6.57;;
75386;SDS011;63966;47.914;22.266;2023-09-19T02:16:30;14.45;;;6.68;;
75386;SDS011;63966;47.914;22.266;2023-09-19T02:19:34;15.82;;;6.85;;
75386;SDS011;63966;47.914;22.266;2023-09-19T02:22:37;10.07;;;5.55;;
75386;SDS011;63966;47.914;22.266;2023-09-19T02:25:42;11.07;;;6.20;;
75386;SDS011;63966;47.914;22.266;2023-09-19T02:28:53;10.07;;;5.90;;
75386;SDS011;63966;47.914;22.266;2023-09-19T02:31:57;11.48;;;5.90;;
75386;SDS011;63966;47.914;22.266;2023-09-19T02:35:01;11.73;;;5.93;;
75386;SDS011;63966;47.914;22.266;2023-09-19T02:38:06;10.65;;;6.00;;
75386;SDS011;63966;47.914;22.266;2023-09-19T02:41:10;11.70;;;6.17;;
75386;SDS011;63966;47.914;22.266;2023-09-19T02:44:14;9.83;;;5.70;;
75386;SDS011;63966;47.914;22.266;2023-09-19T02:47:17;11.65;;;5.97;;
75386;SDS011;63966;47.914;22.266;2023-09-19T02:50:22;11.65;;;5.78;;
75386;SDS011;63966;47.914;22.266;2023-09-19T02:53:25;10.45;;;6.20;;
75386;SDS011;63966;47.914;22.266;2023-09-19T02:56:29;11.33;;;6.27;;
75386;SDS011;63966;47.914;22.266;2023-09-19T02:59:34;10.33;;;6.17;;
75386;SDS011;63966;47.914;22.266;2023-09-19T03:02:39;12.07;;;6.20;;
75386;SDS011;63966;47.914;22.266;2023-09-19T03:05:44;11.40;;;6.07;;
75386;SDS011;63966;47.914;22.266;2023-09-19T03:08:52;11.73;;;6.43;;
75386;SDS011;63966;47.914;22.266;2023-09-19T03:11:57;11.20;;;5.87;;
75386;SDS011;63966;47.914;22.266;2023-09-19T03:15:02;11.00;;;6.13;;
75386;SDS011;63966;47.914;22.266;2023-09-19T03:18:07;15.90;;;6.63;;
75386;SDS011;63966;47.914;22.266;2023-09-19T03:21:10;13.07;;;6.40;;
75386;SDS011;63966;47.914;22.266;2023-09-19T03:24:16;15.55;;;7.00;;
75386;SDS011;63966;47.914;22.266;2023-09-19T03:27:19;11.10;;;6.07;;
75386;SDS011;63966;47.914;22.266;2023-09-19T03:30:23;13.30;;;7.00;;
75386;SDS011;63966;47.914;22.266;2023-09-19T03:33:27;12.27;;;7.38;;
75386;SDS011;63966;47.914;22.266;2023-09-19T03:36:34;12.93;;;6.95;;
75386;SDS011;63966;47.914;22.266;2023-09-19T03:39:38;12.18;;;7.28;;
75386;SDS011;63966;47.914;22.266;2023-09-19T03:42:42;14.93;;;7.03;;
75386;SDS011;63966;47.914;22.266;2023-09-19T03:45:48;12.20;;;7.37;;
75386;SDS011;63966;47.914;22.266;2023-09-19T03:48:53;13.43;;;7.57;;
75386;SDS011;63966;47.914;22.266;2023-09-19T03:51:57;14.07;;;7.70;;
75386;SDS011;63966;47.914;22.266;2023-09-19T03:55:01;10.82;;;6.85;;
75386;SDS011;63966;47.914;22.266;2023-09-19T03:58:06;13.10;;;7.43;;
75386;SDS011;63966;47.914;22.266;2023-09-19T04:01:10;12.33;;;7.40;;
75386;SDS011;63966;47.914;22.266;2023-09-19T04:04:15;14.63;;;7.40;;
75386;SDS011;63966;47.914;22.266;2023-09-19T04:07:21;12.55;;;7.57;;
75386;SDS011;63966;47.914;22.266;2023-09-19T04:10:25;14.98;;;7.00;;
75386;SDS011;63966;47.914;22.266;2023-09-19T04:13:29;12.67;;;6.97;;
75386;SDS011;63966;47.914;22.266;2023-09-19T04:16:32;14.07;;;7.50;;
75386;SDS011;63966;47.914;22.266;2023-09-19T04:19:36;12.48;;;6.72;;
75386;SDS011;63966;47.914;22.266;2023-09-19T04:22:40;12.10;;;7.15;;
75386;SDS011;63966;47.914;22.266;2023-09-19T04:25:44;13.25;;;6.90;;
75386;SDS011;63966;47.914;22.266;2023-09-19T04:28:47;12.13;;;7.13;;
75386;SDS011;63966;47.914;22.266;2023-09-19T04:31:51;12.67;;;7.43;;
75386;SDS011;63966;47.914;22.266;2023-09-19T04:34:54;12.38;;;6.65;;
75386;SDS011;63966;47.914;22.266;2023-09-19T04:38:02;12.73;;;7.53;;
75386;SDS011;63966;47.914;22.266;2023-09-19T04:41:05;12.98;;;7.00;;
75386;SDS011;63966;47.914;22.266;2023-09-19T04:44:09;12.53;;;7.07;;
75386;SDS011;63966;47.914;22.266;2023-09-19T04:47:12;13.53;;;7.20;;
75386;SDS011;63966;47.914;22.266;2023-09-19T04:50:16;11.60;;;7.00;;
75386;SDS011;63966;47.914;22.266;2023-09-19T04:53:19;10.38;;;6.43;;
75386;SDS011;63966;47.914;22.266;2023-09-19T04:56:23;13.23;;;7.10;;
75386;SDS011;63966;47.914;22.266;2023-09-19T04:59:27;15.73;;;7.00;;
75386;SDS011;63966;47.914;22.266;2023-09-19T05:02:30;11.57;;;6.50;;
75386;SDS011;63966;47.914;22.266;2023-09-19T05:05:34;13.35;;;7.07;;
75386;SDS011;63966;47.914;22.266;2023-09-19T05:08:37;11.95;;;6.95;;
75386;SDS011;63966;47.914;22.266;2023-09-19T05:11:41;13.43;;;6.93;;
75386;SDS011;63966;47.914;22.266;2023-09-19T05:14:44;11.17;;;6.67;;
75386;SDS011;63966;47.914;22.266;2023-09-19T05:17:51;12.00;;;7.07;;
75386;SDS011;63966;47.914;22.266;2023-09-19T05:21:01;12.38;;;6.75;;
75386;SDS011;63966;47.914;22.266;2023-09-19T05:24:05;15.70;;;6.90;;
75386;SDS011;63966;47.914;22.266;2023-09-19T05:27:12;11.60;;;7.53;;
75386;SDS011;63966;47.914;22.266;2023-09-19T05:30:19;12.60;;;7.70;;
75386;SDS011;63966;47.914;22.266;2023-09-19T05:33:22;12.87;;;7.30;;
75386;SDS011;63966;47.914;22.266;2023-09-19T05:36:26;11.27;;;6.40;;
75386;SDS011;63966;47.914;22.266;2023-09-19T05:39:31;11.65;;;6.40;;
75386;SDS011;63966;47.914;22.266;2023-09-19T05:42:35;13.35;;;7.13;;
75386;SDS011;63966;47.914;22.266;2023-09-19T05:45:40;12.93;;;6.57;;
75386;SDS011;63966;47.914;22.266;2023-09-19T05:48:44;11.57;;;7.00;;
75386;SDS011;63966;47.914;22.266;2023-09-19T05:51:52;11.85;;;6.13;;
75386;SDS011;63966;47.914;22.266;2023-09-19T05:55:04;10.82;;;6.30;;
75386;SDS011;63966;47.914;22.266;2023-09-19T05:58:09;10.65;;;6.03;;
75386;SDS011;63966;47.914;22.266;2023-09-19T06:01:16;11.07;;;6.30;;
75386;SDS011;63966;47.914;22.266;2023-09-19T06:04:21;14.37;;;6.30;;
75386;SDS011;63966;47.914;22.266;2023-09-19T06:07:25;10.80;;;6.25;;
75386;SDS011;63966;47.914;22.266;2023-09-19T06:10:30;9.32;;;5.80;;
75386;SDS011;63966;47.914;22.266;2023-09-19T06:13:34;10.00;;;6.00;;
75386;SDS011;63966;47.914;22.266;2023-09-19T06:16:38;9.70;;;6.50;;
75386;SDS011;63966;47.914;22.266;2023-09-19T06:19:43;10.77;;;5.97;;
75386;SDS011;63966;47.914;22.266;2023-09-19T06:22:51;11.05;;;6.43;;
75386;SDS011;63966;47.914;22.266;2023-09-19T06:25:55;11.55;;;6.13;;
75386;SDS011;63966;47.914;22.266;2023-09-19T06:29:00;10.85;;;6.10;;
75386;SDS011;63966;47.914;22.266;2023-09-19T06:32:07;10.00;;;5.80;;
75386;SDS011;63966;47.914;22.266;2023-09-19T06:35:12;13.37;;;5.90;;
75386;SDS011;63966;47.914;22.266;2023-09-19T06:38:16;10.80;;;5.72;;
75386;SDS011;63966;47.914;22.266;2023-09-19T06:41:21;14.07;;;6.65;;
75386;SDS011;63966;47.914;22.266;2023-09-19T06:44:27;10.80;;;5.60;;
75386;SDS011;63966;47.914;22.266;2023-09-19T06:47:31;8.73;;;5.83;;
75386;SDS011;63966;47.914;22.266;2023-09-19T06:50:35;10.43;;;6.03;;
75386;SDS011;63966;47.914;22.266;2023-09-19T06:53:39;11.80;;;5.20;;
75386;SDS011;63966;47.914;22.266;2023-09-19T06:56:43;9.98;;;5.60;;
75386;SDS011;63966;47.914;22.266;2023-09-19T07:00:07;9.48;;;5.40;;
75386;SDS011;63966;47.914;22.266;2023-09-19T07:03:17;9.10;;;5.20;;
75386;SDS011;63966;47.914;22.266;2023-09-19T07:06:23;10.60;;;5.83;;
75386;SDS011;63966;47.914;22.266;2023-09-19T07:09:27;9.75;;;5.70;;
75386;SDS011;63966;47.914;22.266;2023-09-19T07:12:31;11.10;;;4.65;;
75386;SDS011;63966;47.914;22.266;2023-09-19T07:15:38;10.20;;;5.53;;
75386;SDS011;63966;47.914;22.266;2023-09-19T07:18:45;9.80;;;6.13;;
75386;SDS011;63966;47.914;22.266;2023-09-19T07:21:48;9.53;;;5.33;;
75386;SDS011;63966;47.914;22.266;2023-09-19T07:24:52;8.80;;;5.60;;
75386;SDS011;63966;47.914;22.266;2023-09-19T07:27:56;9.68;;;5.38;;
75386;SDS011;63966;47.914;22.266;2023-09-19T07:31:03;11.32;;;4.93;;
75386;SDS011;63966;47.914;22.266;2023-09-19T07:34:09;9.67;;;5.17;;
75386;SDS011;63966;47.914;22.266;2023-09-19T07:37:12;9.30;;;5.33;;
75386;SDS011;63966;47.914;22.266;2023-09-19T07:40:18;10.00;;;5.07;;
75386;SDS011;63966;47.914;22.266;2023-09-19T07:43:23;10.27;;;5.20;;
75386;SDS011;63966;47.914;22.266;2023-09-19T07:46:27;11.02;;;5.50;;
75386;SDS011;63966;47.914;22.266;2023-09-19T07:49:33;11.40;;;5.23;;
75386;SDS011;63966;47.914;22.266;2023-09-19T07:52:36;8.53;;;5.23;;
75386;SDS011;63966;47.914;22.266;2023-09-19T07:55:41;10.00;;;5.78;;
75386;SDS011;63966;47.914;22.266;2023-09-19T07:58:50;8.55;;;4.82;;
75386;SDS011;63966;47.914;22.266;2023-09-19T08:01:54;9.32;;;5.75;;
75386;SDS011;63966;47.914;22.266;2023-09-19T08:04:57;9.37;;;5.33;;
75386;SDS011;63966;47.914;22.266;2023-09-19T08:08:23;10.03;;;5.33;;
75386;SDS011;63966;47.914;22.266;2023-09-19T08:11:28;9.60;;;5.10;;
75386;SDS011;63966;47.914;22.266;2023-09-19T08:14:33;10.43;;;5.05;;
75386;SDS011;63966;47.914;22.266;2023-09-19T08:17:37;8.40;;;4.88;;
75386;SDS011;63966;47.914;22.266;2023-09-19T08:31:41;13.93;;;5.15;;
75386;SDS011;63966;47.914;22.266;2023-09-19T08:34:47;12.35;;;5.20;;
75386;SDS011;63966;47.914;22.266;2023-09-19T08:37:55;12.57;;;5.28;;
75386;SDS011;63966;47.914;22.266;2023-09-19T08:40:59;10.67;;;4.90;;
75386;SDS011;63966;47.914;22.266;2023-09-19T08:44:07;11.00;;;4.60;;
75386;SDS011;63966;47.914;22.266;2023-09-19T08:47:15;12.02;;;4.63;;
75386;SDS011;63966;47.914;22.266;2023-09-19T08:50:27;10.00;;;4.57;;
75386;SDS011;63966;47.914;22.266;2023-09-19T08:53:42;10.00;;;4.53;;
75386;SDS011;63966;47.914;22.266;2023-09-19T08:57:03;8.97;;;4.77;;
75386;SDS011;63966;47.914;22.266;2023-09-19T09:00:14;11.23;;;5.05;;
75386;SDS011;63966;47.914;22.266;2023-09-19T09:03:20;11.95;;;4.80;;
75386;SDS011;63966;47.914;22.266;2023-09-19T09:06:25;10.25;;;4.80;;
75386;SDS011;63966;47.914;22.266;2023-09-19T09:09:30;11.03;;;4.80;;
75386;SDS011;63966;47.914;22.266;2023-09-19T09:12:36;13.50;;;5.57;;
75386;SDS011;63966;47.914;22.266;2023-09-19T09:15:43;10.82;;;4.88;;
75386;SDS011;63966;47.914;22.266;2023-09-19T09:18:47;12.73;;;4.97;;
75386;SDS011;63966;47.914;22.266;2023-09-19T09:22:10;10.48;;;4.50;;
75386;SDS011;63966;47.914;22.266;2023-09-19T09:25:14;13.15;;;5.00;;
75386;SDS011;63966;47.914;22.266;2023-09-19T09:28:21;8.63;;;4.83;;
75386;SDS011;63966;47.914;22.266;2023-09-19T09:31:26;11.25;;;5.05;;
75386;SDS011;63966;47.914;22.266;2023-09-19T09:34:33;16.00;;;5.65;;
75386;SDS011;63966;47.914;22.266;2023-09-19T09:37:36;11.77;;;5.00;;
75386;SDS011;63966;47.914;22.266;2023-09-19T09:40:50;13.63;;;5.25;;
75386;SDS011;63966;47.914;22.266;2023-09-19T09:44:16;10.70;;;4.93;;
75386;SDS011;63966;47.914;22.266;2023-09-19T09:47:40;11.65;;;5.30;;
75386;SDS011;63966;47.914;22.266;2023-09-19T09:51:00;15.85;;;5.95;;
75386;SDS011;63966;47.914;22.266;2023-09-19T09:54:24;11.18;;;5.40;;
75386;SDS011;63966;47.914;22.266;2023-09-19T09:57:41;11.43;;;5.75;;
75386;SDS011;63966;47.914;22.266;2023-09-19T10:00:53;13.23;;;4.93;;
75386;SDS011;63966;47.914;22.266;2023-09-19T10:03:59;15.80;;;5.32;;
75386;SDS011;63966;47.914;22.266;2023-09-19T10:07:03;12.88;;;5.35;;
75386;SDS011;63966;47.914;22.266;2023-09-19T10:10:08;14.80;;;5.50;;
75386;SDS011;63966;47.914;22.266;2023-09-19T10:13:18;12.32;;;5.65;;
75386;SDS011;63966;47.914;22.266;2023-09-19T10:16:28;14.30;;;5.27;;
75386;SDS011;63966;47.914;22.266;2023-09-19T10:19:54;12.15;;;5.45;;
75386;SDS011;63966;47.914;22.266;2023-09-19T10:23:01;11.45;;;5.03;;
75386;SDS011;63966;47.914;22.266;2023-09-19T10:26:11;11.15;;;5.60;;
75386;SDS011;63966;47.914;22.266;2023-09-19T10:29:19;16.77;;;5.22;;
75386;SDS011;63966;47.914;22.266;2023-09-19T10:32:23;12.33;;;5.13;;
75386;SDS011;63966;47.914;22.266;2023-09-19T10:35:30;16.35;;;5.65;;
75386;SDS011;63966;47.914;22.266;2023-09-19T10:38:36;13.15;;;5.63;;
75386;SDS011;63966;47.914;22.266;2023-09-19T10:41:43;12.00;;;5.32;;
75386;SDS011;63966;47.914;22.266;2023-09-19T10:44:55;15.13;;;5.53;;
75386;SDS011;63966;47.914;22.266;2023-09-19T10:48:02;11.90;;;5.60;;
75386;SDS011;63966;47.914;22.266;2023-09-19T10:51:11;16.95;;;5.53;;
75386;SDS011;63966;47.914;22.266;2023-09-19T10:54:21;10.10;;;5.15;;
75386;SDS011;63966;47.914;22.266;2023-09-19T10:57:29;12.80;;;4.88;;
75386;SDS011;63966;47.914;22.266;2023-09-19T11:00:49;11.23;;;5.47;;
75386;SDS011;63966;47.914;22.266;2023-09-19T11:04:20;13.80;;;5.40;;
75386;SDS011;63966;47.914;22.266;2023-09-19T11:07:33;11.90;;;5.28;;
75386;SDS011;63966;47.914;22.266;2023-09-19T11:11:02;12.23;;;5.07;;
75386;SDS011;63966;47.914;22.266;2023-09-19T11:17:31;10.43;;;5.20;;
75386;SDS011;63966;47.914;22.266;2023-09-19T11:20:35;10.30;;;5.13;;
75386;SDS011;63966;47.914;22.266;2023-09-19T11:23:44;13.93;;;5.30;;
75386;SDS011;63966;47.914;22.266;2023-09-19T11:27:28;10.48;;;5.15;;
75386;SDS011;63966;47.914;22.266;2023-09-19T11:30:40;15.60;;;5.65;;
75386;SDS011;63966;47.914;22.266;2023-09-19T11:33:47;11.25;;;5.32;;
75386;SDS011;63966;47.914;22.266;2023-09-19T11:40:17;11.48;;;5.38;;
75386;SDS011;63966;47.914;22.266;2023-09-19T11:43:28;10.45;;;5.30;;
75386;SDS011;63966;47.914;22.266;2023-09-19T11:46:33;17.23;;;5.60;;
75386;SDS011;63966;47.914;22.266;2023-09-19T11:49:53;11.97;;;5.13;;
75386;SDS011;63966;47.914;22.266;2023-09-19T11:52:57;9.03;;;4.60;;
75386;SDS011;63966;47.914;22.266;2023-09-19T11:56:01;11.40;;;5.07;;
75386;SDS011;63966;47.914;22.266;2023-09-19T11:59:09;13.60;;;5.60;;
75386;SDS011;63966;47.914;22.266;2023-09-19T12:02:14;11.35;;;5.18;;
75386;SDS011;63966;47.914;22.266;2023-09-19T12:05:37;11.00;;;5.33;;
75386;SDS011;63966;47.914;22.266;2023-09-19T12:08:42;11.30;;;5.50;;
75386;SDS011;63966;47.914;22.266;2023-09-19T12:11:46;11.85;;;5.45;;
75386;SDS011;63966;47.914;22.266;2023-09-19T12:14:52;9.13;;;5.32;;
75386;SDS011;63966;47.914;22.266;2023-09-19T12:17:57;12.07;;;5.72;;
75386;SDS011;63966;47.914;22.266;2023-09-19T12:21:00;12.70;;;5.60;;
75386;SDS011;63966;47.914;22.266;2023-09-19T12:24:13;11.73;;;5.30;;
75386;SDS011;63966;47.914;22.266;2023-09-19T12:27:18;13.05;;;5.50;;
75386;SDS011;63966;47.914;22.266;2023-09-19T12:30:27;13.07;;;5.43;;
75386;SDS011;63966;47.914;22.266;2023-09-19T12:33:37;13.43;;;5.32;;
75386;SDS011;63966;47.914;22.266;2023-09-19T12:36:42;14.43;;;6.20;;
75386;SDS011;63966;47.914;22.266;2023-09-19T12:39:46;11.67;;;5.17;;
75386;SDS011;63966;47.914;22.266;2023-09-19T12:42:57;11.73;;;5.38;;
75386;SDS011;63966;47.914;22.266;2023-09-19T12:46:01;14.30;;;6.60;;
75386;SDS011;63966;47.914;22.266;2023-09-19T12:49:19;9.70;;;5.15;;
75386;SDS011;63966;47.914;22.266;2023-09-19T12:52:23;14.03;;;5.67;;
75386;SDS011;63966;47.914;22.266;2023-09-19T12:55:29;14.40;;;5.33;;
75386;SDS011;63966;47.914;22.266;2023-09-19T12:58:57;13.57;;;5.40;;
75386;SDS011;63966;47.914;22.266;2023-09-19T13:02:05;14.82;;;6.47;;
75386;SDS011;63966;47.914;22.266;2023-09-19T13:05:10;11.40;;;5.63;;
75386;SDS011;63966;47.914;22.266;2023-09-19T13:11:40;11.00;;;5.70;;
75386;SDS011;63966;47.914;22.266;2023-09-19T13:14:48;10.80;;;5.43;;
75386;SDS011;63966;47.914;22.266;2023-09-19T13:18:15;12.95;;;6.20;;
75386;SDS011;63966;47.914;22.266;2023-09-19T13:21:28;13.02;;;6.03;;
75386;SDS011;63966;47.914;22.266;2023-09-19T13:24:39;14.07;;;6.15;;
75386;SDS011;63966;47.914;22.266;2023-09-19T13:27:44;12.07;;;6.10;;
75386;SDS011;63966;47.914;22.266;2023-09-19T13:30:56;16.83;;;6.40;;
75386;SDS011;63966;47.914;22.266;2023-09-19T13:33:59;16.92;;;6.18;;
75386;SDS011;63966;47.914;22.266;2023-09-19T13:37:03;14.55;;;6.07;;
75386;SDS011;63966;47.914;22.266;2023-09-19T13:40:07;11.33;;;6.50;;
75386;SDS011;63966;47.914;22.266;2023-09-19T13:43:11;13.13;;;6.47;;
75386;SDS011;63966;47.914;22.266;2023-09-19T13:46:15;11.73;;;5.65;;
75386;SDS011;63966;47.914;22.266;2023-09-19T13:49:20;13.00;;;6.38;;
75386;SDS011;63966;47.914;22.266;2023-09-19T13:52:26;15.38;;;6.55;;
75386;SDS011;63966;47.914;22.266;2023-09-19T13:55:31;11.70;;;6.00;;
75386;SDS011;63966;47.914;22.266;2023-09-19T13:58:35;10.10;;;5.77;;
75386;SDS011;63966;47.914;22.266;2023-09-19T14:01:38;15.30;;;6.13;;
75386;SDS011;63966;47.914;22.266;2023-09-19T14:04:42;10.57;;;5.47;;
75386;SDS011;63966;47.914;22.266;2023-09-19T14:07:46;8.60;;;4.80;;
75386;SDS011;63966;47.914;22.266;2023-09-19T14:10:49;8.90;;;3.93;;
75386;SDS011;63966;47.914;22.266;2023-09-19T14:13:53;10.07;;;3.10;;
75386;SDS011;63966;47.914;22.266;2023-09-19T14:16:59;10.25;;;3.40;;
75386;SDS011;63966;47.914;22.266;2023-09-19T14:20:03;11.40;;;3.80;;
75386;SDS011;63966;47.914;22.266;2023-09-19T14:23:09;6.57;;;3.28;;
75386;SDS011;63966;47.914;22.266;2023-09-19T14:26:13;7.03;;;2.43;;
75386;SDS011;63966;47.914;22.266;2023-09-19T14:29:18;6.53;;;2.23;;
75386;SDS011;63966;47.914;22.266;2023-09-19T14:32:22;6.45;;;1.98;;
75386;SDS011;63966;47.914;22.266;2023-09-19T14:35:25;4.50;;;1.80;;
75386;SDS011;63966;47.914;22.266;2023-09-19T14:38:29;5.55;;;1.67;;
75386;SDS011;63966;47.914;22.266;2023-09-19T14:41:32;4.27;;;1.60;;
75386;SDS011;63966;47.914;22.266;2023-09-19T14:44:36;3.83;;;1.77;;
75386;SDS011;63966;47.914;22.266;2023-09-19T14:47:39;4.47;;;1.60;;
75386;SDS011;63966;47.914;22.266;2023-09-19T14:50:44;4.90;;;1.30;;
75386;SDS011;63966;47.914;22.266;2023-09-19T14:53:48;2.47;;;1.20;;
75386;SDS011;63966;47.914;22.266;2023-09-19T14:56:51;9.43;;;2.20;;
75386;SDS011;63966;47.914;22.266;2023-09-19T15:00:06;6.20;;;3.27;;
75386;SDS011;63966;47.914;22.266;2023-09-19T15:03:14;8.85;;;4.80;;
75386;SDS011;63966;47.914;22.266;2023-09-19T15:06:18;9.35;;;5.68;;
75386;SDS011;63966;47.914;22.266;2023-09-19T15:09:23;10.27;;;5.93;;
75386;SDS011;63966;47.914;22.266;2023-09-19T15:12:28;8.77;;;5.53;;
75386;SDS011;63966;47.914;22.266;2023-09-19T15:15:32;9.60;;;5.43;;
75386;SDS011;63966;47.914;22.266;2023-09-19T15:18:39;6.95;;;4.10;;
75386;SDS011;63966;47.914;22.266;2023-09-19T15:21:44;7.43;;;3.35;;
75386;SDS011;63966;47.914;22.266;2023-09-19T15:24:47;6.07;;;3.25;;
75386;SDS011;63966;47.914;22.266;2023-09-19T15:27:50;4.80;;;2.60;;
75386;SDS011;63966;47.914;22.266;2023-09-19T15:30:58;5.83;;;2.23;;
75386;SDS011;63966;47.914;22.266;2023-09-19T15:34:03;5.07;;;2.60;;
75386;SDS011;63966;47.914;22.266;2023-09-19T15:37:08;3.38;;;1.73;;
75386;SDS011;63966;47.914;22.266;2023-09-19T15:40:11;4.85;;;2.42;;
75386;SDS011;63966;47.914;22.266;2023-09-19T15:43:15;4.23;;;1.83;;
75386;SDS011;63966;47.914;22.266;2023-09-19T15:46:19;4.83;;;2.20;;
75386;SDS011;63966;47.914;22.266;2023-09-19T15:49:23;4.53;;;2.20;;
75386;SDS011;63966;47.914;22.266;2023-09-19T15:52:27;3.83;;;2.10;;
75386;SDS011;63966;47.914;22.266;2023-09-19T15:55:30;4.72;;;2.47;;
75386;SDS011;63966;47.914;22.266;2023-09-19T15:58:34;4.70;;;2.00;;
75386;SDS011;63966;47.914;22.266;2023-09-19T16:01:41;4.57;;;2.00;;
75386;SDS011;63966;47.914;22.266;2023-09-19T16:04:46;6.43;;;2.03;;
75386;SDS011;63966;47.914;22.266;2023-09-19T16:07:49;5.40;;;2.45;;
75386;SDS011;63966;47.914;22.266;2023-09-19T16:10:53;4.40;;;2.10;;
75386;SDS011;63966;47.914;22.266;2023-09-19T16:13:56;5.53;;;2.00;;
75386;SDS011;63966;47.914;22.266;2023-09-19T16:17:00;5.20;;;2.13;;
75386;SDS011;63966;47.914;22.266;2023-09-19T16:20:05;6.40;;;2.40;;
75386;SDS011;63966;47.914;22.266;2023-09-19T16:23:10;5.03;;;2.50;;
75386;SDS011;63966;47.914;22.266;2023-09-19T16:26:14;4.70;;;2.20;;
75386;SDS011;63966;47.914;22.266;2023-09-19T16:29:18;4.80;;;2.37;;
75386;SDS011;63966;47.914;22.266;2023-09-19T16:32:26;5.20;;;2.30;;
75386;SDS011;63966;47.914;22.266;2023-09-19T16:35:30;4.70;;;2.20;;
75386;SDS011;63966;47.914;22.266;2023-09-19T16:38:38;4.30;;;2.10;;
75386;SDS011;63966;47.914;22.266;2023-09-19T16:41:44;5.82;;;2.67;;
75386;SDS011;63966;47.914;22.266;2023-09-19T16:44:47;5.63;;;2.87;;
75386;SDS011;63966;47.914;22.266;2023-09-19T16:47:51;5.00;;;2.53;;
75386;SDS011;63966;47.914;22.266;2023-09-19T16:50:54;5.97;;;2.78;;
75386;SDS011;63966;47.914;22.266;2023-09-19T16:54:01;5.45;;;2.63;;
75386;SDS011;63966;47.914;22.266;2023-09-19T16:57:05;6.35;;;2.70;;
75386;SDS011;63966;47.914;22.266;2023-09-19T17:00:08;5.70;;;2.80;;
75386;SDS011;63966;47.914;22.266;2023-09-19T17:03:12;6.70;;;3.13;;
75386;SDS011;63966;47.914;22.266;2023-09-19T17:06:17;6.30;;;3.25;;
75386;SDS011;63966;47.914;22.266;2023-09-19T17:09:24;7.10;;;2.90;;
75386;SDS011;63966;47.914;22.266;2023-09-19T17:12:27;8.13;;;3.35;;
75386;SDS011;63966;47.914;22.266;2023-09-19T17:15:33;9.77;;;4.30;;
75386;SDS011;63966;47.914;22.266;2023-09-19T17:18:37;7.67;;;4.00;;
75386;SDS011;63966;47.914;22.266;2023-09-19T17:21:45;7.78;;;3.85;;
75386;SDS011;63966;47.914;22.266;2023-09-19T17:24:49;7.90;;;4.38;;
75386;SDS011;63966;47.914;22.266;2023-09-19T17:27:53;8.02;;;4.47;;
75386;SDS011;63966;47.914;22.266;2023-09-19T17:30:57;10.13;;;4.83;;
75386;SDS011;63966;47.914;22.266;2023-09-19T17:34:00;7.87;;;4.87;;
75386;SDS011;63966;47.914;22.266;2023-09-19T17:37:04;8.60;;;4.78;;
75386;SDS011;63966;47.914;22.266;2023-09-19T17:40:10;8.90;;;4.75;;
75386;SDS011;63966;47.914;22.266;2023-09-19T17:43:13;7.53;;;4.65;;
75386;SDS011;63966;47.914;22.266;2023-09-19T17:46:17;7.60;;;4.43;;
75386;SDS011;63966;47.914;22.266;2023-09-19T17:49:22;8.07;;;4.97;;
75386;SDS011;63966;47.914;22.266;2023-09-19T17:52:25;7.75;;;4.65;;
75386;SDS011;63966;47.914;22.266;2023-09-19T17:55:29;8.38;;;4.43;;
75386;SDS011;63966;47.914;22.266;2023-09-19T17:58:34;8.65;;;4.85;;
75386;SDS011;63966;47.914;22.266;2023-09-19T18:01:38;8.27;;;4.00;;
75386;SDS011;63966;47.914;22.266;2023-09-19T18:04:42;12.27;;;5.00;;
75386;SDS011;63966;47.914;22.266;2023-09-19T18:07:46;9.00;;;4.82;;
75386;SDS011;63966;47.914;22.266;2023-09-19T18:10:50;6.82;;;3.88;;
75386;SDS011;63966;47.914;22.266;2023-09-19T18:13:55;6.43;;;3.38;;
75386;SDS011;63966;47.914;22.266;2023-09-19T18:17:00;6.13;;;3.07;;
75386;SDS011;63966;47.914;22.266;2023-09-19T18:20:04;5.83;;;3.03;;
75386;SDS011;63966;47.914;22.266;2023-09-19T18:23:09;5.70;;;2.78;;
75386;SDS011;63966;47.914;22.266;2023-09-19T18:26:13;5.90;;;2.80;;
75386;SDS011;63966;47.914;22.266;2023-09-19T18:29:17;7.90;;;2.70;;
75386;SDS011;63966;47.914;22.266;2023-09-19T18:32:21;5.90;;;3.30;;
75386;SDS011;63966;47.914;22.266;2023-09-19T18:35:26;7.13;;;2.80;;
75386;SDS011;63966;47.914;22.266;2023-09-19T18:38:37;4.30;;;2.15;;
75386;SDS011;63966;47.914;22.266;2023-09-19T18:41:43;5.40;;;2.72;;
75386;SDS011;63966;47.914;22.266;2023-09-19T18:44:48;6.40;;;2.40;;
75386;SDS011;63966;47.914;22.266;2023-09-19T18:47:52;6.97;;;2.70;;